Huvudsida
METAR-TAF:

METAR-TAF

Flygplatser :

Gullfaks, Norge

latitud: 61-02N, longitud: 002-02E, höjd: 10 m

Aktuellt väderrapport

Denna rapport gjordes för 24 minuter sedan, klockan 21:50 UTC
Vind 38 kt från väst/sydväst
Temperatur 8°C
Fuktighet 93%
Tryck 1027 hPa
Sikt: 2000 m
Mulet på en höjd av 600 ft
lätt regn, fuktdis

METAR: ENGC 192150Z 24038KT 2000 -RA BR OVC006 08/07 Q1027 W07/S5

Tid: 23:14 (22:14 UTC)

Väderprognos

Prognos gäller från 19 kl. 21 UTC till 20 kl. 21 UTC
Vind 42 kt från väst/sydväst
Sikt 10 km eller mer
Brutna moln på en höjd av 1500 ft
lätt regn
Temporärt
från 19 kl. 21 UTC till 20 kl. 03 UTC
Sikt: 4000 m
Brutna moln på en höjd av 800 ft
regn, duggregn
Sannolikhet 40%
från 20 kl. 03 UTC till 20 kl. 10 UTC
Vind 30 kt från väst/sydväst
Temporärt
från 20 kl. 03 UTC till 20 kl. 21 UTC
Sikt: 4000 m
Brutna moln på en höjd av 700 ft
fuktdis

TAF: ENGC 1921/2021 24042KT 9999 -RA BKN015 TEMPO 1921/2003 4000 RADZ BKN008 PROB40 2003/2010 25030KT TEMPO 2003/2021 4000 BR BKN007

Aktuella väderrapporter och prognoser från 4000 flygplatser (METAR- och TAF-rapporter).

De tillgängliga stationerna syns som gula och röda prickar på kartan.

För musen över prickarna för att se namnen på stationerna.

Klicka sedan för att få väderrapporter och prognoser.

För att ändra kartan: Klicka på de gröna knapparna med ett svart kors på för att zooma in; den gröna knappen med ett streck på för att zooma ut; eller på de gröna pilarna för angränsande kartor.


METAR-TAF: